createdAt,value
2023-03-24T00:00:35.378Z,27.40
2023-03-24T00:03:06.721Z,27.50
2023-03-24T00:05:38.020Z,27.50
2023-03-24T00:08:09.365Z,27.50
2023-03-24T00:10:41.732Z,27.60
2023-03-24T00:13:12.739Z,27.60
2023-03-24T00:15:43.757Z,27.60
2023-03-24T00:18:15.496Z,27.70
2023-03-24T00:20:48.073Z,27.70
2023-03-24T00:23:19.071Z,27.70
2023-03-24T00:25:50.720Z,27.70
2023-03-24T00:28:21.990Z,27.70
2023-03-24T00:30:54.250Z,27.80
2023-03-24T00:33:26.457Z,27.80
2023-03-24T00:35:58.991Z,27.80
2023-03-24T00:38:30.832Z,27.80
2023-03-24T00:41:02.272Z,27.80
2023-03-24T00:43:33.843Z,27.80
2023-03-24T00:46:07.367Z,27.90
2023-03-24T00:48:50.988Z,27.90
2023-03-24T00:51:24.472Z,28.00
2023-03-24T00:53:56.904Z,28.10
2023-03-24T00:56:30.811Z,28.10
2023-03-24T00:59:03.453Z,28.20
2023-03-24T01:01:37.579Z,28.30
2023-03-24T01:04:09.678Z,28.30
2023-03-24T01:06:41.123Z,28.30
2023-03-24T01:09:13.528Z,28.40
2023-03-24T01:11:45.166Z,28.40
2023-03-24T01:14:17.222Z,28.40
2023-03-24T01:16:48.574Z,28.50
2023-03-24T01:19:19.680Z,28.60
2023-03-24T01:21:52.395Z,28.60
2023-03-24T01:24:25.787Z,28.70
2023-03-24T01:26:57.226Z,28.80
2023-03-24T01:29:28.688Z,28.80
2023-03-24T01:32:00.197Z,28.90
2023-03-24T01:34:31.520Z,29.00
2023-03-24T01:37:03.556Z,29.10
2023-03-24T01:39:35.083Z,29.10
2023-03-24T01:42:06.873Z,29.20
2023-03-24T01:44:40.278Z,29.20
2023-03-24T01:47:11.621Z,29.30
2023-03-24T01:49:47.781Z,29.40
2023-03-24T01:52:30.338Z,29.50
2023-03-24T01:55:04.389Z,29.50
2023-03-24T01:57:44.333Z,29.60
2023-03-24T02:00:18.180Z,29.70
2023-03-24T02:02:56.091Z,29.70
2023-03-24T02:05:29.516Z,29.90
2023-03-24T02:08:05.978Z,29.90
2023-03-24T02:10:45.353Z,30.00
2023-03-24T02:13:16.860Z,30.10
2023-03-24T02:16:10.056Z,30.20
2023-03-24T02:18:56.091Z,30.20
2023-03-24T02:21:29.676Z,30.40
2023-03-24T02:24:27.481Z,30.40
2023-03-24T02:27:01.103Z,30.50
2023-03-24T02:29:52.829Z,30.60
2023-03-24T02:32:55.025Z,30.70
2023-03-24T02:35:43.429Z,30.80
2023-03-24T02:38:37.492Z,31.00
2023-03-24T02:41:16.759Z,31.10
2023-03-24T02:47:10.002Z,31.30
2023-03-24T02:49:53.008Z,31.50
2023-03-24T02:52:35.650Z,31.60
2023-03-24T02:55:18.418Z,31.70
2023-03-24T02:58:04.159Z,31.80
2023-03-24T03:00:42.345Z,31.90
2023-03-24T03:03:15.938Z,32.00
2023-03-24T03:05:49.354Z,32.10
2023-03-24T03:08:22.879Z,32.20
2023-03-24T03:10:56.848Z,32.30
2023-03-24T03:13:40.371Z,32.40
2023-03-24T03:16:17.216Z,32.40
2023-03-24T03:18:51.578Z,32.60
2023-03-24T03:21:25.460Z,32.60
2023-03-24T03:23:58.792Z,32.80
2023-03-24T03:26:33.300Z,32.90
2023-03-24T03:29:09.115Z,32.90
2023-03-24T03:31:46.639Z,33.00
2023-03-24T03:34:23.343Z,33.10
2023-03-24T03:36:57.293Z,33.30
2023-03-24T03:39:33.766Z,33.40
2023-03-24T03:42:04.216Z,33.50
2023-03-24T03:44:35.344Z,33.60
2023-03-24T03:47:06.416Z,33.70
2023-03-24T03:49:38.492Z,33.80
2023-03-24T03:52:16.742Z,33.90
2023-03-24T03:54:49.744Z,34.00
2023-03-24T03:57:21.913Z,34.00
2023-03-24T03:59:53.106Z,34.00
2023-03-24T04:02:36.669Z,34.20
2023-03-24T04:05:28.786Z,34.20
2023-03-24T04:08:08.001Z,34.20
2023-03-24T04:10:53.720Z,34.30
2023-03-24T04:13:42.024Z,34.30
2023-03-24T04:16:22.434Z,34.40
2023-03-24T04:18:56.136Z,34.60
2023-03-24T04:21:35.533Z,34.60
2023-03-24T04:24:35.962Z,34.70
2023-03-24T04:27:27.503Z,34.80
2023-03-24T04:30:07.364Z,34.90
2023-03-24T04:32:44.619Z,34.90
2023-03-24T04:35:34.519Z,34.90
2023-03-24T04:38:08.396Z,35.00
2023-03-24T04:40:43.594Z,35.10
2023-03-24T04:43:18.927Z,35.10
2023-03-24T04:45:50.879Z,35.20
2023-03-24T04:48:23.390Z,35.30
2023-03-24T04:50:59.904Z,35.40
2023-03-24T04:53:34.051Z,35.30
2023-03-24T04:56:07.962Z,35.30
2023-03-24T04:58:39.053Z,35.30
2023-03-24T05:01:10.904Z,35.30
2023-03-24T05:03:46.160Z,35.40
2023-03-24T05:08:50.149Z,35.40
2023-03-24T05:11:22.409Z,35.60
2023-03-24T05:13:53.908Z,35.60
2023-03-24T05:16:27.370Z,36.30
2023-03-24T05:18:58.564Z,35.90
2023-03-24T05:21:30.928Z,35.90
2023-03-24T05:24:02.384Z,36.10
2023-03-24T05:26:33.688Z,36.10
2023-03-24T05:29:04.829Z,36.20
2023-03-24T05:31:35.880Z,36.20
2023-03-24T05:34:07.316Z,36.20
2023-03-24T05:36:39.542Z,36.30
2023-03-24T05:39:10.899Z,36.40
2023-03-24T05:41:42.072Z,36.40
2023-03-24T05:44:13.580Z,36.40
2023-03-24T05:46:45.229Z,36.40
2023-03-24T05:49:16.461Z,36.50
2023-03-24T05:51:47.592Z,36.50
2023-03-24T05:54:18.771Z,36.50
2023-03-24T05:56:50.135Z,36.50
2023-03-24T05:59:21.281Z,36.50
2023-03-24T06:01:53.708Z,36.60
2023-03-24T06:04:25.880Z,36.60
2023-03-24T06:06:57.103Z,36.50
2023-03-24T06:09:31.057Z,36.50
2023-03-24T06:12:03.805Z,36.50
2023-03-24T06:14:34.966Z,36.50
2023-03-24T06:17:06.084Z,36.40
2023-03-24T06:19:38.917Z,36.40
2023-03-24T06:22:09.928Z,36.40
2023-03-24T06:24:41.007Z,36.50
2023-03-24T06:27:12.746Z,36.60
2023-03-24T06:30:14.042Z,36.70
2023-03-24T06:32:47.043Z,36.70
2023-03-24T06:35:21.002Z,36.80
2023-03-24T06:37:53.387Z,36.80
2023-03-24T06:40:24.790Z,36.80
2023-03-24T06:42:55.952Z,36.80
2023-03-24T06:45:27.899Z,36.70
2023-03-24T06:47:59.772Z,36.70
2023-03-24T06:50:32.496Z,36.80
2023-03-24T06:53:04.493Z,36.70
2023-03-24T06:55:35.768Z,36.70
2023-03-24T06:58:07.114Z,36.70
2023-03-24T07:00:39.112Z,36.80
2023-03-24T07:03:10.329Z,36.80
2023-03-24T07:05:43.962Z,36.90
2023-03-24T07:10:47.912Z,36.90
2023-03-24T07:13:18.984Z,36.90
2023-03-24T07:15:50.301Z,36.90
2023-03-24T07:18:21.490Z,37.00
2023-03-24T07:20:53.089Z,37.00
2023-03-24T07:23:25.713Z,37.00
2023-03-24T07:25:57.267Z,37.10
2023-03-24T07:28:28.735Z,37.00
2023-03-24T07:31:01.135Z,37.00
2023-03-24T07:33:32.332Z,37.10
2023-03-24T07:36:03.391Z,37.10
2023-03-24T07:38:36.107Z,37.10
2023-03-24T07:41:07.534Z,37.00
2023-03-24T07:43:38.798Z,37.00
2023-03-24T07:46:10.925Z,37.00
2023-03-24T07:48:42.378Z,37.00
2023-03-24T07:51:13.815Z,37.00
2023-03-24T07:53:46.305Z,37.00
2023-03-24T07:56:17.766Z,37.10
2023-03-24T07:58:48.902Z,37.10
2023-03-24T08:01:20.282Z,37.10
2023-03-24T08:03:52.862Z,37.10
2023-03-24T08:06:24.103Z,37.10
2023-03-24T08:08:55.357Z,37.10
2023-03-24T08:11:26.543Z,37.10
2023-03-24T08:13:57.634Z,37.10
2023-03-24T08:16:28.875Z,37.10
2023-03-24T08:19:00.671Z,37.10
2023-03-24T08:21:34.214Z,37.10
2023-03-24T08:24:26.494Z,37.10
2023-03-24T08:26:59.013Z,37.10
2023-03-24T08:29:30.638Z,37.10
2023-03-24T08:32:01.763Z,37.10
2023-03-24T08:34:34.784Z,37.10
2023-03-24T08:37:05.499Z,37.20
2023-03-24T08:39:37.182Z,37.10
2023-03-24T08:42:08.691Z,37.10
2023-03-24T08:44:40.109Z,37.10
2023-03-24T08:47:11.296Z,37.10
2023-03-24T08:49:42.569Z,37.10
2023-03-24T08:52:14.218Z,37.10
2023-03-24T08:55:38.358Z,37.10
2023-03-24T08:58:10.135Z,36.90
2023-03-24T09:00:41.820Z,37.10
2023-03-24T09:03:19.388Z,37.00
2023-03-24T09:06:00.399Z,37.00
2023-03-24T09:08:25.881Z,37.00
2023-03-24T09:10:57.388Z,37.00
2023-03-24T09:13:28.837Z,37.00
2023-03-24T09:16:05.712Z,36.90
2023-03-24T09:18:36.942Z,36.90
2023-03-24T09:21:08.740Z,36.80
2023-03-24T09:23:39.920Z,36.80
2023-03-24T09:26:11.271Z,36.80
2023-03-24T09:28:42.535Z,36.80
2023-03-24T09:31:14.267Z,36.70
2023-03-24T09:33:45.378Z,36.70
2023-03-24T09:36:16.605Z,36.70
2023-03-24T09:38:54.648Z,36.70
2023-03-24T09:41:23.034Z,36.60
2023-03-24T09:43:57.839Z,36.50
2023-03-24T09:46:31.368Z,36.50
2023-03-24T09:49:02.700Z,36.50
2023-03-24T09:51:36.505Z,36.50
2023-03-24T09:54:25.272Z,36.50
2023-03-24T09:56:58.094Z,36.60
2023-03-24T09:59:37.421Z,36.50
2023-03-24T10:02:16.889Z,36.40
2023-03-24T10:04:49.112Z,36.40
2023-03-24T10:07:26.609Z,36.40
2023-03-24T10:10:01.165Z,36.30
2023-03-24T10:12:37.845Z,36.30
2023-03-24T10:15:37.832Z,36.30
2023-03-24T10:18:05.880Z,36.30
2023-03-24T10:20:45.148Z,36.20
2023-03-24T10:23:24.404Z,36.30
2023-03-24T10:26:03.972Z,36.20
2023-03-24T10:28:55.949Z,36.10
2023-03-24T10:31:32.593Z,36.10
2023-03-24T10:34:04.258Z,36.10
2023-03-24T10:36:37.351Z,36.10
2023-03-24T10:41:42.920Z,36.10
2023-03-24T10:44:15.865Z,36.00
2023-03-24T10:46:52.500Z,36.10
2023-03-24T10:49:25.831Z,36.00
2023-03-24T10:52:00.020Z,35.90
2023-03-24T10:54:33.085Z,35.90
2023-03-24T10:57:07.090Z,35.90
2023-03-24T10:59:40.945Z,35.90
2023-03-24T11:02:17.514Z,35.80
2023-03-24T11:04:53.630Z,35.80
2023-03-24T11:07:25.121Z,35.70
2023-03-24T11:10:15.282Z,35.70
2023-03-24T11:13:02.153Z,35.70
2023-03-24T11:15:42.832Z,35.60
2023-03-24T11:18:18.106Z,35.60
2023-03-24T11:21:09.303Z,35.60
2023-03-24T11:23:46.601Z,35.60
2023-03-24T11:26:26.030Z,35.50
2023-03-24T11:29:02.082Z,35.50
2023-03-24T11:31:36.263Z,35.40
2023-03-24T11:34:12.587Z,35.40
2023-03-24T11:36:46.438Z,35.40
2023-03-24T11:39:18.836Z,35.30
2023-03-24T11:42:17.472Z,35.30
2023-03-24T11:44:53.584Z,35.30
2023-03-24T11:47:41.466Z,35.20
2023-03-24T11:50:18.283Z,35.20
2023-03-24T11:53:07.887Z,35.20
2023-03-24T11:55:58.449Z,35.20
2023-03-24T11:58:37.607Z,35.10
2023-03-24T12:01:10.985Z,35.10
2023-03-24T12:03:49.097Z,35.10
2023-03-24T12:06:34.404Z,35.00
2023-03-24T12:09:14.184Z,35.00
2023-03-24T12:12:10.392Z,35.00
2023-03-24T12:14:46.753Z,34.90
2023-03-24T12:17:19.941Z,34.80
2023-03-24T12:20:08.310Z,34.80
2023-03-24T12:22:47.553Z,34.80
2023-03-24T12:25:50.436Z,34.70
2023-03-24T12:28:41.757Z,34.70
2023-03-24T12:31:37.046Z,34.70
2023-03-24T12:34:16.256Z,34.60
2023-03-24T12:37:13.573Z,34.60
2023-03-24T12:39:47.025Z,34.60
2023-03-24T12:42:20.601Z,34.60
2023-03-24T12:45:09.052Z,34.60
2023-03-24T12:47:57.291Z,34.50
2023-03-24T12:50:36.173Z,34.50
2023-03-24T12:53:27.589Z,34.40
2023-03-24T12:56:23.234Z,34.40
2023-03-24T12:59:08.537Z,34.50
2023-03-24T13:01:47.099Z,34.40
2023-03-24T13:04:39.505Z,34.40
2023-03-24T13:07:15.827Z,34.40
2023-03-24T13:09:49.890Z,34.40
2023-03-24T13:12:26.176Z,34.40
2023-03-24T13:15:06.395Z,34.40
2023-03-24T13:17:44.923Z,34.40
2023-03-24T13:20:29.189Z,34.40
2023-03-24T13:23:01.590Z,34.30
2023-03-24T13:25:37.735Z,34.30
2023-03-24T13:28:11.152Z,34.30
2023-03-24T13:30:43.693Z,34.30
2023-03-24T13:33:23.175Z,34.30
2023-03-24T13:36:05.563Z,34.20
2023-03-24T13:38:45.126Z,34.20
2023-03-24T13:41:18.512Z,34.20
2023-03-24T13:43:54.770Z,34.10
2023-03-24T13:46:24.525Z,34.10
2023-03-24T13:48:57.937Z,34.10
2023-03-24T13:51:40.596Z,34.10
2023-03-24T13:54:19.819Z,34.00
2023-03-24T13:57:24.430Z,33.80
2023-03-24T14:00:10.143Z,34.00
2023-03-24T14:02:56.467Z,34.00
2023-03-24T14:05:38.084Z,33.90
2023-03-24T14:08:11.666Z,33.90
2023-03-24T14:10:45.555Z,33.90
2023-03-24T14:13:19.097Z,33.90
2023-03-24T14:15:55.413Z,33.80
2023-03-24T14:18:28.889Z,33.80
2023-03-24T14:21:03.095Z,33.80
2023-03-24T14:23:42.690Z,33.80
2023-03-24T14:26:19.351Z,33.70
2023-03-24T14:28:52.924Z,33.70
2023-03-24T14:31:38.642Z,33.70
2023-03-24T14:34:17.948Z,33.70
2023-03-24T14:36:50.956Z,33.60
2023-03-24T14:39:48.329Z,33.50
2023-03-24T14:42:39.946Z,33.50
2023-03-24T14:45:31.947Z,33.50
2023-03-24T14:48:07.635Z,33.60
2023-03-24T14:50:39.829Z,33.50
2023-03-24T14:53:15.698Z,33.40
2023-03-24T14:55:47.691Z,33.50
2023-03-24T14:58:27.844Z,33.40
2023-03-24T15:01:07.704Z,33.40
2023-03-24T15:03:46.813Z,33.40
2023-03-24T15:06:20.239Z,33.40
2023-03-24T15:09:00.768Z,33.40
2023-03-24T15:11:36.777Z,33.30
2023-03-24T15:14:10.418Z,33.40
2023-03-24T15:16:41.732Z,33.30
2023-03-24T15:19:15.161Z,33.30
2023-03-24T15:22:03.293Z,33.30
2023-03-24T15:24:37.320Z,33.30
2023-03-24T15:27:22.458Z,33.30
2023-03-24T15:29:59.651Z,33.30
2023-03-24T15:32:33.246Z,33.20
2023-03-24T15:35:07.015Z,33.20
2023-03-24T15:37:42.456Z,33.20
2023-03-24T15:40:33.847Z,33.20
2023-03-24T15:43:10.587Z,33.20
2023-03-24T15:45:57.918Z,33.20
2023-03-24T15:48:25.599Z,33.20
2023-03-24T15:51:02.687Z,33.10
2023-03-24T15:53:45.472Z,33.10
2023-03-24T15:56:24.836Z,33.10
2023-03-24T15:59:10.313Z,33.10
2023-03-24T16:01:44.809Z,33.00
2023-03-24T16:04:17.967Z,33.10
2023-03-24T16:06:54.578Z,33.00
2023-03-24T16:09:27.959Z,32.90
2023-03-24T16:11:59.562Z,32.90
2023-03-24T16:14:33.929Z,32.90
2023-03-24T16:17:05.898Z,32.90
2023-03-24T16:19:37.090Z,32.90
2023-03-24T16:22:13.341Z,32.90
2023-03-24T16:24:47.005Z,32.90
2023-03-24T16:27:19.635Z,32.80
2023-03-24T16:29:50.703Z,32.80
2023-03-24T16:32:22.460Z,32.80
2023-03-24T16:34:53.581Z,32.70
2023-03-24T16:37:24.588Z,32.70
2023-03-24T16:39:55.603Z,32.70
2023-03-24T16:42:26.824Z,32.70
2023-03-24T16:44:57.976Z,32.70
2023-03-24T16:47:29.018Z,32.70
2023-03-24T16:50:00.168Z,32.70
2023-03-24T16:52:31.234Z,32.70
2023-03-24T16:55:02.359Z,32.60
2023-03-24T16:57:33.366Z,32.50
2023-03-24T17:00:05.871Z,32.50
2023-03-24T17:02:38.778Z,32.60
2023-03-24T17:05:19.503Z,32.50
2023-03-24T17:07:50.554Z,32.40
2023-03-24T17:10:21.885Z,32.30
2023-03-24T17:12:54.470Z,32.30
2023-03-24T17:15:34.528Z,32.30
2023-03-24T17:18:06.357Z,32.30
2023-03-24T17:20:38.707Z,32.20
2023-03-24T17:23:12.045Z,32.20
2023-03-24T17:25:43.100Z,32.20
2023-03-24T17:28:18.957Z,32.20
2023-03-24T17:30:50.134Z,32.10
2023-03-24T17:33:21.662Z,32.10
2023-03-24T17:35:53.571Z,32.10
2023-03-24T17:38:24.740Z,32.00
2023-03-24T17:41:05.609Z,32.00
2023-03-24T17:43:36.613Z,31.90
2023-03-24T17:46:07.943Z,31.80
2023-03-24T17:48:39.039Z,31.80
2023-03-24T17:51:10.370Z,31.80
2023-03-24T17:53:41.493Z,31.80
2023-03-24T17:56:12.701Z,31.70
2023-03-24T17:58:45.127Z,31.70
2023-03-24T18:01:17.906Z,31.60
2023-03-24T18:03:50.609Z,31.50
2023-03-24T18:06:21.591Z,31.40
2023-03-24T18:08:54.143Z,31.40
2023-03-24T18:11:25.288Z,31.30
2023-03-24T18:13:56.375Z,31.30
2023-03-24T18:16:28.792Z,31.30
2023-03-24T18:19:01.638Z,31.30
2023-03-24T18:21:33.007Z,31.30
2023-03-24T18:24:04.987Z,31.20
2023-03-24T18:26:36.394Z,31.20
2023-03-24T18:29:08.098Z,31.10
2023-03-24T18:31:39.194Z,31.10
2023-03-24T18:34:10.677Z,31.10
2023-03-24T18:36:41.743Z,31.10
2023-03-24T18:39:13.150Z,31.10
2023-03-24T18:41:44.442Z,31.10
2023-03-24T18:44:16.903Z,31.10
2023-03-24T18:46:47.896Z,31.10
2023-03-24T18:49:18.900Z,31.00
2023-03-24T18:51:49.924Z,31.10
2023-03-24T18:54:23.366Z,31.00
2023-03-24T18:56:54.425Z,31.00
2023-03-24T18:59:25.722Z,31.00
2023-03-24T19:01:57.266Z,31.00
2023-03-24T19:04:28.572Z,30.90
2023-03-24T19:07:01.031Z,31.00
2023-03-24T19:09:32.584Z,30.90
2023-03-24T19:12:03.961Z,30.80
2023-03-24T19:14:35.371Z,30.80
2023-03-24T19:17:06.787Z,30.80
2023-03-24T19:19:37.999Z,30.70
2023-03-24T19:22:09.444Z,30.70
2023-03-24T19:24:40.959Z,30.80
2023-03-24T19:27:11.926Z,30.80
2023-03-24T19:29:43.255Z,30.80
2023-03-24T19:32:14.744Z,30.80
2023-03-24T19:34:45.968Z,30.80
2023-03-24T19:37:17.379Z,30.80
2023-03-24T19:39:48.445Z,30.80
2023-03-24T19:42:19.388Z,30.80
2023-03-24T19:44:50.604Z,30.80
2023-03-24T19:47:21.675Z,30.70
2023-03-24T19:49:52.684Z,30.60
2023-03-24T19:52:23.660Z,30.60
2023-03-24T19:54:54.880Z,30.60
2023-03-24T19:57:26.332Z,30.60
2023-03-24T20:00:00.616Z,30.60
2023-03-24T20:02:35.575Z,30.60
2023-03-24T20:05:07.917Z,30.60
2023-03-24T20:07:39.337Z,30.60
2023-03-24T20:10:11.262Z,30.60
2023-03-24T20:12:42.376Z,30.50
2023-03-24T20:15:13.893Z,30.50
2023-03-24T20:17:45.005Z,30.50
2023-03-24T20:20:17.584Z,30.40
2023-03-24T20:22:49.803Z,30.40
2023-03-24T20:25:21.910Z,30.40
2023-03-24T20:27:53.267Z,30.40
2023-03-24T20:30:25.436Z,30.40
2023-03-24T20:32:58.424Z,30.30
2023-03-24T20:35:29.723Z,30.30
2023-03-24T20:38:01.002Z,30.30
2023-03-24T20:40:32.315Z,30.30
2023-03-24T20:43:03.323Z,30.20
2023-03-24T20:45:34.330Z,30.20
2023-03-24T20:48:05.851Z,30.10
2023-03-24T20:50:38.037Z,30.10
2023-03-24T20:53:09.610Z,30.10
2023-03-24T20:55:40.550Z,30.10
2023-03-24T20:58:12.391Z,30.10
2023-03-24T21:00:44.771Z,30.10
2023-03-24T21:03:15.864Z,30.10
2023-03-24T21:05:46.934Z,30.10
2023-03-24T21:08:18.229Z,30.00
2023-03-24T21:10:49.212Z,30.00
2023-03-24T21:13:21.771Z,30.00
2023-03-24T21:15:52.575Z,31.00
2023-03-24T21:18:24.010Z,29.90
2023-03-24T21:20:56.792Z,30.00
2023-03-24T21:23:28.634Z,30.00
2023-03-24T21:25:59.918Z,29.90
2023-03-24T21:28:31.884Z,29.90
2023-03-24T21:31:11.160Z,29.80
2023-03-24T21:33:43.693Z,29.80
2023-03-24T21:36:15.840Z,29.80
2023-03-24T21:38:47.079Z,29.80
2023-03-24T21:41:18.787Z,30.10
2023-03-24T21:43:51.538Z,29.90
2023-03-24T21:46:23.850Z,29.80
2023-03-24T21:48:56.606Z,29.70
2023-03-24T21:51:31.413Z,29.70
2023-03-24T21:54:06.040Z,29.70
2023-03-24T21:56:38.964Z,29.80
2023-03-24T21:59:10.944Z,29.70
2023-03-24T22:01:42.134Z,29.60
2023-03-24T22:04:14.475Z,29.60
2023-03-24T22:06:45.568Z,29.50
2023-03-24T22:09:18.346Z,29.60
2023-03-24T22:11:49.999Z,29.60
2023-03-24T22:14:22.479Z,29.60
2023-03-24T22:16:54.923Z,29.50
2023-03-24T22:19:26.180Z,29.50
2023-03-24T22:21:58.641Z,29.50
2023-03-24T22:24:31.047Z,29.40
2023-03-24T22:27:03.341Z,29.40
2023-03-24T22:29:34.346Z,29.30
2023-03-24T22:32:05.383Z,29.40
2023-03-24T22:34:36.506Z,29.30
2023-03-24T22:37:07.532Z,29.30
2023-03-24T22:39:40.795Z,29.20
2023-03-24T22:42:12.216Z,29.10
2023-03-24T22:44:43.429Z,29.10
2023-03-24T22:47:14.420Z,29.10
2023-03-24T22:49:45.560Z,29.00
2023-03-24T22:52:16.598Z,29.00
2023-03-24T22:54:47.594Z,29.00
2023-03-24T22:57:19.784Z,28.90
2023-03-24T22:59:50.774Z,28.90
2023-03-24T23:02:23.274Z,28.90
2023-03-24T23:04:55.114Z,28.90
2023-03-24T23:07:27.589Z,28.90
2023-03-24T23:09:59.933Z,28.90
2023-03-24T23:12:31.433Z,29.00
2023-03-24T23:15:02.515Z,28.80
2023-03-24T23:17:33.594Z,28.80
2023-03-24T23:20:06.065Z,28.70
2023-03-24T23:22:38.829Z,28.60
2023-03-24T23:25:10.480Z,28.60
2023-03-24T23:27:41.769Z,28.50
2023-03-24T23:30:14.517Z,28.50
2023-03-24T23:32:47.344Z,28.50
2023-03-24T23:35:18.487Z,28.40
2023-03-24T23:37:49.576Z,28.40
2023-03-24T23:40:21.073Z,28.40
2023-03-24T23:43:12.600Z,28.40
2023-03-24T23:45:44.031Z,28.40
2023-03-24T23:48:15.039Z,28.50
2023-03-24T23:50:47.725Z,28.50
2023-03-24T23:53:19.272Z,28.50
2023-03-24T23:55:56.643Z,28.50
2023-03-24T23:58:30.279Z,28.40
